sensor_id;sensor_type;location;lat;lon;timestamp;pressure;altitude;pressure_sealevel;temperature;humidity
20424;BME280;10371;49.042;8.002;2024-03-08T00:00:25;99773.47;;;4.88;96.55
20424;BME280;10371;49.042;8.002;2024-03-08T00:01:25;99772.16;;;4.81;96.71
20424;BME280;10371;49.042;8.002;2024-03-08T00:02:26;99774.56;;;4.84;96.46
20424;BME280;10371;49.042;8.002;2024-03-08T00:03:26;99770.50;;;4.80;96.83
20424;BME280;10371;49.042;8.002;2024-03-08T00:04:27;99772.63;;;4.74;96.88
20424;BME280;10371;49.042;8.002;2024-03-08T00:05:27;99771.94;;;4.70;96.91
20424;BME280;10371;49.042;8.002;2024-03-08T00:06:27;99773.69;;;4.69;97.47
20424;BME280;10371;49.042;8.002;2024-03-08T00:07:27;99766.16;;;4.66;97.47
20424;BME280;10371;49.042;8.002;2024-03-08T00:08:28;99768.38;;;4.73;97.43
20424;BME280;10371;49.042;8.002;2024-03-08T00:09:28;99756.41;;;4.72;97.53
20424;BME280;10371;49.042;8.002;2024-03-08T00:10:30;99768.69;;;4.82;97.32
20424;BME280;10371;49.042;8.002;2024-03-08T00:11:31;99754.66;;;4.72;97.18
20424;BME280;10371;49.042;8.002;2024-03-08T00:12:31;99753.16;;;4.68;97.27
20424;BME280;10371;49.042;8.002;2024-03-08T00:13:31;99749.94;;;4.64;97.54
20424;BME280;10371;49.042;8.002;2024-03-08T00:14:32;99754.25;;;4.64;97.36
20424;BME280;10371;49.042;8.002;2024-03-08T00:15:33;99754.06;;;4.67;97.69
20424;BME280;10371;49.042;8.002;2024-03-08T00:16:33;99750.75;;;4.65;97.61
20424;BME280;10371;49.042;8.002;2024-03-08T00:17:35;99758.31;;;4.68;97.53
20424;BME280;10371;49.042;8.002;2024-03-08T00:18:36;99753.91;;;4.70;97.27
20424;BME280;10371;49.042;8.002;2024-03-08T00:19:36;99757.88;;;4.76;97.21
20424;BME280;10371;49.042;8.002;2024-03-08T00:20:37;99754.28;;;4.78;97.04
20424;BME280;10371;49.042;8.002;2024-03-08T00:21:37;99756.31;;;4.73;97.17
20424;BME280;10371;49.042;8.002;2024-03-08T00:22:38;99761.91;;;4.65;96.78
20424;BME280;10371;49.042;8.002;2024-03-08T00:23:38;99757.47;;;4.67;96.94
20424;BME280;10371;49.042;8.002;2024-03-08T00:24:39;99754.66;;;4.72;97.20
20424;BME280;10371;49.042;8.002;2024-03-08T00:25:40;99752.25;;;4.69;97.44
20424;BME280;10371;49.042;8.002;2024-03-08T00:26:40;99757.41;;;4.69;96.88
20424;BME280;10371;49.042;8.002;2024-03-08T00:27:42;99758.03;;;4.58;97.01
20424;BME280;10371;49.042;8.002;2024-03-08T00:28:42;99753.50;;;4.62;97.49
20424;BME280;10371;49.042;8.002;2024-03-08T00:29:43;99750.75;;;4.65;97.19
20424;BME280;10371;49.042;8.002;2024-03-08T00:30:43;99753.44;;;4.63;97.33
20424;BME280;10371;49.042;8.002;2024-03-08T00:31:44;99751.38;;;4.54;97.14
20424;BME280;10371;49.042;8.002;2024-03-08T00:32:44;99748.06;;;4.52;97.37
20424;BME280;10371;49.042;8.002;2024-03-08T00:33:44;99750.88;;;4.47;97.54
20424;BME280;10371;49.042;8.002;2024-03-08T00:34:44;99749.13;;;4.48;97.58
20424;BME280;10371;49.042;8.002;2024-03-08T00:35:45;99750.72;;;4.51;97.90
20424;BME280;10371;49.042;8.002;2024-03-08T00:36:45;99746.66;;;4.46;98.07
20424;BME280;10371;49.042;8.002;2024-03-08T00:37:45;99744.47;;;4.55;98.17
20424;BME280;10371;49.042;8.002;2024-03-08T00:38:47;99743.56;;;4.56;97.86
20424;BME280;10371;49.042;8.002;2024-03-08T00:39:51;99738.78;;;4.64;97.89
20424;BME280;10371;49.042;8.002;2024-03-08T00:40:51;99736.38;;;4.61;97.35
20424;BME280;10371;49.042;8.002;2024-03-08T00:41:51;99735.56;;;4.60;97.26
20424;BME280;10371;49.042;8.002;2024-03-08T00:42:52;99744.78;;;4.64;97.17
20424;BME280;10371;49.042;8.002;2024-03-08T00:43:53;99740.63;;;4.62;97.08
20424;BME280;10371;49.042;8.002;2024-03-08T00:44:53;99741.72;;;4.58;97.05
20424;BME280;10371;49.042;8.002;2024-03-08T00:45:54;99745.19;;;4.57;96.94
20424;BME280;10371;49.042;8.002;2024-03-08T00:46:54;99740.97;;;4.56;97.00
20424;BME280;10371;49.042;8.002;2024-03-08T00:47:55;99740.16;;;4.55;97.17
20424;BME280;10371;49.042;8.002;2024-03-08T00:48:55;99742.81;;;4.54;96.88
20424;BME280;10371;49.042;8.002;2024-03-08T00:49:56;99746.66;;;4.46;97.19
20424;BME280;10371;49.042;8.002;2024-03-08T00:50:57;99734.66;;;4.45;97.50
20424;BME280;10371;49.042;8.002;2024-03-08T00:51:57;99742.34;;;4.47;97.38
20424;BME280;10371;49.042;8.002;2024-03-08T00:52:57;99744.91;;;4.47;97.11
20424;BME280;10371;49.042;8.002;2024-03-08T00:53:58;99739.00;;;4.45;97.43
20424;BME280;10371;49.042;8.002;2024-03-08T00:54:58;99741.34;;;4.50;97.49
20424;BME280;10371;49.042;8.002;2024-03-08T00:55:58;99735.34;;;4.49;97.44
20424;BME280;10371;49.042;8.002;2024-03-08T00:56:58;99733.78;;;4.46;97.66
20424;BME280;10371;49.042;8.002;2024-03-08T00:58:00;99738.94;;;4.46;97.15
20424;BME280;10371;49.042;8.002;2024-03-08T00:59:01;99733.03;;;4.44;97.37
20424;BME280;10371;49.042;8.002;2024-03-08T01:00:04;99733.28;;;4.40;97.53
20424;BME280;10371;49.042;8.002;2024-03-08T01:01:09;99729.88;;;4.39;97.65
20424;BME280;10371;49.042;8.002;2024-03-08T01:02:09;99727.22;;;4.41;97.55
20424;BME280;10371;49.042;8.002;2024-03-08T01:03:10;99729.97;;;4.38;97.53
20424;BME280;10371;49.042;8.002;2024-03-08T01:04:10;99716.22;;;4.37;97.63
20424;BME280;10371;49.042;8.002;2024-03-08T01:05:11;99721.38;;;4.37;97.60
20424;BME280;10371;49.042;8.002;2024-03-08T01:06:12;99712.94;;;4.35;97.56
20424;BME280;10371;49.042;8.002;2024-03-08T01:07:12;99715.75;;;4.31;97.42
20424;BME280;10371;49.042;8.002;2024-03-08T01:08:12;99715.75;;;4.31;97.51
20424;BME280;10371;49.042;8.002;2024-03-08T01:09:13;99705.47;;;4.31;97.69
20424;BME280;10371;49.042;8.002;2024-03-08T01:10:13;99707.22;;;4.30;98.08
20424;BME280;10371;49.042;8.002;2024-03-08T01:11:13;99711.03;;;4.23;97.76
20424;BME280;10371;49.042;8.002;2024-03-08T01:12:14;99712.78;;;4.22;98.26
20424;BME280;10371;49.042;8.002;2024-03-08T01:13:14;99705.97;;;4.21;98.13
20424;BME280;10371;49.042;8.002;2024-03-08T01:14:15;99710.78;;;4.28;98.33
20424;BME280;10371;49.042;8.002;2024-03-08T01:15:16;99708.13;;;4.29;98.23
20424;BME280;10371;49.042;8.002;2024-03-08T01:16:16;99709.13;;;4.27;98.08
20424;BME280;10371;49.042;8.002;2024-03-08T01:17:21;99711.22;;;4.20;98.23
20424;BME280;10371;49.042;8.002;2024-03-08T01:18:21;99707.34;;;4.13;98.32
20424;BME280;10371;49.042;8.002;2024-03-08T01:19:22;99706.16;;;4.18;98.38
20424;BME280;10371;49.042;8.002;2024-03-08T01:20:22;99703.75;;;4.15;98.33
20424;BME280;10371;49.042;8.002;2024-03-08T01:21:23;99709.31;;;4.23;98.21
20424;BME280;10371;49.042;8.002;2024-03-08T01:22:23;99699.00;;;4.23;98.47
20424;BME280;10371;49.042;8.002;2024-03-08T01:23:23;99697.97;;;4.26;98.34
20424;BME280;10371;49.042;8.002;2024-03-08T01:24:24;99706.06;;;4.20;98.03
20424;BME280;10371;49.042;8.002;2024-03-08T01:25:25;99698.84;;;4.11;97.80
20424;BME280;10371;49.042;8.002;2024-03-08T01:26:25;99701.66;;;4.06;98.54
20424;BME280;10371;49.042;8.002;2024-03-08T01:27:26;99697.88;;;3.97;98.81
20424;BME280;10371;49.042;8.002;2024-03-08T01:28:26;99695.69;;;4.06;99.21
20424;BME280;10371;49.042;8.002;2024-03-08T01:29:26;99685.03;;;4.12;99.18
20424;BME280;10371;49.042;8.002;2024-03-08T01:30:27;99689.19;;;4.14;98.52
20424;BME280;10371;49.042;8.002;2024-03-08T01:31:29;99686.22;;;4.06;98.50
20424;BME280;10371;49.042;8.002;2024-03-08T01:32:29;99686.72;;;4.13;98.88
20424;BME280;10371;49.042;8.002;2024-03-08T01:33:30;99684.41;;;4.08;98.91
20424;BME280;10371;49.042;8.002;2024-03-08T01:34:31;99686.91;;;4.10;98.77
20424;BME280;10371;49.042;8.002;2024-03-08T01:35:33;99677.09;;;4.00;98.62
20424;BME280;10371;49.042;8.002;2024-03-08T01:36:34;99676.09;;;4.03;98.56
20424;BME280;10371;49.042;8.002;2024-03-08T01:37:37;99677.50;;;4.09;98.72
20424;BME280;10371;49.042;8.002;2024-03-08T01:38:38;99681.50;;;3.98;98.73
20424;BME280;10371;49.042;8.002;2024-03-08T01:39:38;99670.94;;;4.03;98.72
20424;BME280;10371;49.042;8.002;2024-03-08T01:40:38;99673.78;;;3.98;98.56
20424;BME280;10371;49.042;8.002;2024-03-08T01:41:41;99672.47;;;3.91;98.80
20424;BME280;10371;49.042;8.002;2024-03-08T01:42:41;99672.94;;;3.98;98.93
20424;BME280;10371;49.042;8.002;2024-03-08T01:43:41;99675.44;;;3.99;98.83
20424;BME280;10371;49.042;8.002;2024-03-08T01:44:42;99670.63;;;3.93;99.01
20424;BME280;10371;49.042;8.002;2024-03-08T01:45:43;99670.94;;;3.87;99.09
20424;BME280;10371;49.042;8.002;2024-03-08T01:46:44;99668.56;;;3.84;99.47
20424;BME280;10371;49.042;8.002;2024-03-08T01:47:45;99670.56;;;3.79;99.57
20424;BME280;10371;49.042;8.002;2024-03-08T01:48:48;99662.84;;;3.79;99.45
20424;BME280;10371;49.042;8.002;2024-03-08T01:49:50;99668.81;;;3.79;99.70
20424;BME280;10371;49.042;8.002;2024-03-08T01:50:51;99672.06;;;3.83;99.74
20424;BME280;10371;49.042;8.002;2024-03-08T01:51:52;99668.47;;;3.86;99.45
20424;BME280;10371;49.042;8.002;2024-03-08T01:52:52;99660.19;;;3.80;99.44
20424;BME280;10371;49.042;8.002;2024-03-08T01:53:53;99668.56;;;3.84;99.65
20424;BME280;10371;49.042;8.002;2024-03-08T01:54:53;99664.50;;;3.80;99.50
20424;BME280;10371;49.042;8.002;2024-03-08T01:55:56;99664.16;;;3.70;99.27
20424;BME280;10371;49.042;8.002;2024-03-08T01:56:57;99661.03;;;3.65;99.71
20424;BME280;10371;49.042;8.002;2024-03-08T01:57:59;99665.50;;;3.62;99.70
20424;BME280;10371;49.042;8.002;2024-03-08T01:58:59;99661.03;;;3.65;100.00
20424;BME280;10371;49.042;8.002;2024-03-08T02:00:01;99657.53;;;3.66;100.00
20424;BME280;10371;49.042;8.002;2024-03-08T02:01:03;99655.94;;;3.64;100.00
20424;BME280;10371;49.042;8.002;2024-03-08T02:02:05;99654.38;;;3.61;99.98
20424;BME280;10371;49.042;8.002;2024-03-08T02:03:06;99654.38;;;3.61;100.00
20424;BME280;10371;49.042;8.002;2024-03-08T02:04:06;99651.72;;;3.63;100.00
20424;BME280;10371;49.042;8.002;2024-03-08T02:05:07;99652.97;;;3.55;100.00
20424;BME280;10371;49.042;8.002;2024-03-08T02:06:08;99645.25;;;3.55;100.00
20424;BME280;10371;49.042;8.002;2024-03-08T02:07:10;99652.44;;;3.65;100.00
20424;BME280;10371;49.042;8.002;2024-03-08T02:08:10;99646.06;;;3.56;100.00
20424;BME280;10371;49.042;8.002;2024-03-08T02:09:14;99643.00;;;3.49;100.00
20424;BME280;10371;49.042;8.002;2024-03-08T02:10:15;99639.94;;;3.43;100.00
20424;BME280;10371;49.042;8.002;2024-03-08T02:11:15;99647.00;;;3.39;100.00
20424;BME280;10371;49.042;8.002;2024-03-08T02:12:16;99640.44;;;3.33;100.00
20424;BME280;10371;49.042;8.002;2024-03-08T02:13:16;99637.94;;;3.32;100.00
20424;BME280;10371;49.042;8.002;2024-03-08T02:14:17;99637.84;;;3.33;100.00
20424;BME280;10371;49.042;8.002;2024-03-08T02:15:18;99629.16;;;3.36;100.00
20424;BME280;10371;49.042;8.002;2024-03-08T02:16:21;99635.44;;;3.30;100.00
20424;BME280;10371;49.042;8.002;2024-03-08T02:17:21;99632.97;;;3.29;100.00
20424;BME280;10371;49.042;8.002;2024-03-08T02:18:22;99635.78;;;3.24;100.00
20424;BME280;10371;49.042;8.002;2024-03-08T02:19:23;99635.84;;;3.23;100.00
20424;BME280;10371;49.042;8.002;2024-03-08T02:20:23;99634.38;;;3.19;100.00
20424;BME280;10371;49.042;8.002;2024-03-08T02:21:23;99633.03;;;3.11;100.00
20424;BME280;10371;49.042;8.002;2024-03-08T02:22:24;99638.16;;;3.11;100.00
20424;BME280;10371;49.042;8.002;2024-03-08T02:23:26;99637.50;;;3.08;100.00
20424;BME280;10371;49.042;8.002;2024-03-08T02:24:26;99633.34;;;3.05;100.00
20424;BME280;10371;49.042;8.002;2024-03-08T02:25:26;99634.09;;;3.07;100.00
20424;BME280;10371;49.042;8.002;2024-03-08T02:26:27;99636.84;;;3.04;100.00
20424;BME280;10371;49.042;8.002;2024-03-08T02:27:27;99632.53;;;3.05;100.00
20424;BME280;10371;49.042;8.002;2024-03-08T02:28:30;99625.97;;;2.99;100.00
20424;BME280;10371;49.042;8.002;2024-03-08T02:29:31;99635.50;;;2.97;100.00
20424;BME280;10371;49.042;8.002;2024-03-08T02:30:32;99625.72;;;3.04;100.00
20424;BME280;10371;49.042;8.002;2024-03-08T02:31:32;99624.47;;;3.11;100.00
20424;BME280;10371;49.042;8.002;2024-03-08T02:32:33;99627.28;;;3.06;100.00
20424;BME280;10371;49.042;8.002;2024-03-08T02:33:33;99623.00;;;3.07;100.00
20424;BME280;10371;49.042;8.002;2024-03-08T02:34:33;99621.47;;;3.03;100.00
20424;BME280;10371;49.042;8.002;2024-03-08T02:35:35;99617.16;;;3.03;100.00
20424;BME280;10371;49.042;8.002;2024-03-08T02:36:35;99621.75;;;2.98;100.00
20424;BME280;10371;49.042;8.002;2024-03-08T02:37:36;99621.06;;;2.95;100.00
20424;BME280;10371;49.042;8.002;2024-03-08T02:38:36;99617.81;;;2.91;100.00
20424;BME280;10371;49.042;8.002;2024-03-08T02:39:36;99615.19;;;2.93;100.00
20424;BME280;10371;49.042;8.002;2024-03-08T02:40:36;99625.38;;;2.94;100.00
20424;BME280;10371;49.042;8.002;2024-03-08T02:41:37;99616.91;;;2.92;100.00
20424;BME280;10371;49.042;8.002;2024-03-08T02:42:37;99621.16;;;2.93;100.00
20424;BME280;10371;49.042;8.002;2024-03-08T02:43:37;99616.31;;;2.87;100.00
20424;BME280;10371;49.042;8.002;2024-03-08T02:44:38;99614.81;;;2.83;100.00
20424;BME280;10371;49.042;8.002;2024-03-08T02:45:42;99610.81;;;2.77;100.00
20424;BME280;10371;49.042;8.002;2024-03-08T02:46:42;99618.53;;;2.77;100.00
20424;BME280;10371;49.042;8.002;2024-03-08T02:47:42;99618.53;;;2.77;100.00
20424;BME280;10371;49.042;8.002;2024-03-08T02:48:42;99614.38;;;2.75;100.00
20424;BME280;10371;49.042;8.002;2024-03-08T02:49:43;99609.91;;;2.78;100.00
20424;BME280;10371;49.042;8.002;2024-03-08T02:50:43;99611.91;;;2.73;100.00
20424;BME280;10371;49.042;8.002;2024-03-08T02:51:44;99615.56;;;2.85;100.00
20424;BME280;10371;49.042;8.002;2024-03-08T02:52:44;99609.94;;;2.94;100.00
20424;BME280;10371;49.042;8.002;2024-03-08T02:53:46;99617.31;;;2.84;100.00
20424;BME280;10371;49.042;8.002;2024-03-08T02:54:48;99612.31;;;2.81;100.00
20424;BME280;10371;49.042;8.002;2024-03-08T02:55:50;99609.19;;;2.76;100.00
20424;BME280;10371;49.042;8.002;2024-03-08T02:56:50;99610.38;;;2.69;100.00
20424;BME280;10371;49.042;8.002;2024-03-08T02:57:51;99599.44;;;2.65;100.00
20424;BME280;10371;49.042;8.002;2024-03-08T02:58:52;99600.34;;;2.64;100.00
20424;BME280;10371;49.042;8.002;2024-03-08T02:59:53;99605.78;;;2.58;100.00
20424;BME280;10371;49.042;8.002;2024-03-08T03:00:53;99604.31;;;2.54;100.00
20424;BME280;10371;49.042;8.002;2024-03-08T03:01:55;99607.75;;;2.53;100.00
20424;BME280;10371;49.042;8.002;2024-03-08T03:02:56;99608.63;;;2.54;100.00
20424;BME280;10371;49.042;8.002;2024-03-08T03:03:56;99607.25;;;2.46;100.00
20424;BME280;10371;49.042;8.002;2024-03-08T03:04:58;99603.19;;;2.42;100.00
20424;BME280;10371;49.042;8.002;2024-03-08T03:05:58;99607.63;;;2.39;100.00
20424;BME280;10371;49.042;8.002;2024-03-08T03:06:58;99601.00;;;2.35;100.00
20424;BME280;10371;49.042;8.002;2024-03-08T03:07:59;99605.44;;;2.31;100.00
20424;BME280;10371;49.042;8.002;2024-03-08T03:08:59;99597.16;;;2.26;100.00
20424;BME280;10371;49.042;8.002;2024-03-08T03:10:00;99597.22;;;2.24;100.00
20424;BME280;10371;49.042;8.002;2024-03-08T03:11:00;99595.59;;;2.23;100.00
20424;BME280;10371;49.042;8.002;2024-03-08T03:12:01;99592.84;;;2.27;100.00
20424;BME280;10371;49.042;8.002;2024-03-08T03:13:02;99593.69;;;2.27;100.00
20424;BME280;10371;49.042;8.002;2024-03-08T03:14:04;99591.94;;;2.28;100.00
20424;BME280;10371;49.042;8.002;2024-03-08T03:15:05;99585.31;;;2.23;100.00
20424;BME280;10371;49.042;8.002;2024-03-08T03:16:06;99590.44;;;2.23;100.00
20424;BME280;10371;49.042;8.002;2024-03-08T03:17:07;99592.09;;;2.24;100.00
20424;BME280;10371;49.042;8.002;2024-03-08T03:18:07;99590.28;;;2.27;100.00
20424;BME280;10371;49.042;8.002;2024-03-08T03:19:08;99592.09;;;2.24;100.00
20424;BME280;10371;49.042;8.002;2024-03-08T03:20:08;99587.94;;;2.22;100.00
20424;BME280;10371;49.042;8.002;2024-03-08T03:21:13;99585.47;;;2.20;100.00
20424;BME280;10371;49.042;8.002;2024-03-08T03:22:13;99586.91;;;2.26;100.00
20424;BME280;10371;49.042;8.002;2024-03-08T03:23:15;99585.16;;;2.27;100.00
20424;BME280;10371;49.042;8.002;2024-03-08T03:24:20;99584.38;;;2.24;100.00
20424;BME280;10371;49.042;8.002;2024-03-08T03:25:21;99579.34;;;2.23;100.00
20424;BME280;10371;49.042;8.002;2024-03-08T03:26:33;99584.69;;;2.18;100.00
20424;BME280;10371;49.042;8.002;2024-03-08T03:27:33;99577.91;;;2.17;100.00
20424;BME280;10371;49.042;8.002;2024-03-08T03:28:34;99585.75;;;2.14;100.00
20424;BME280;10371;49.042;8.002;2024-03-08T03:29:34;99579.78;;;2.14;100.00
20424;BME280;10371;49.042;8.002;2024-03-08T03:30:34;99582.50;;;2.11;100.00
20424;BME280;10371;49.042;8.002;2024-03-08T03:31:35;99583.28;;;2.13;100.00
20424;BME280;10371;49.042;8.002;2024-03-08T03:32:36;99579.78;;;2.14;100.00
20424;BME280;10371;49.042;8.002;2024-03-08T03:33:46;99573.81;;;2.13;100.00
20424;BME280;10371;49.042;8.002;2024-03-08T03:34:47;99577.31;;;2.12;100.00
20424;BME280;10371;49.042;8.002;2024-03-08T03:35:47;99577.38;;;2.11;100.00
20424;BME280;10371;49.042;8.002;2024-03-08T03:36:47;99572.34;;;2.09;100.00
20424;BME280;10371;49.042;8.002;2024-03-08T03:37:49;99574.03;;;2.09;100.00
20424;BME280;10371;49.042;8.002;2024-03-08T03:39:02;99571.63;;;2.06;100.00
20424;BME280;10371;49.042;8.002;2024-03-08T03:40:12;99568.41;;;2.02;100.00
20424;BME280;10371;49.042;8.002;2024-03-08T03:41:13;99569.38;;;1.99;100.00
20424;BME280;10371;49.042;8.002;2024-03-08T03:42:18;99571.13;;;1.99;100.00
20424;BME280;10371;49.042;8.002;2024-03-08T03:43:18;99567.78;;;1.97;100.00
20424;BME280;10371;49.042;8.002;2024-03-08T03:44:19;99566.81;;;1.99;100.00
20424;BME280;10371;49.042;8.002;2024-03-08T03:45:19;99573.75;;;1.97;100.00
20424;BME280;10371;49.042;8.002;2024-03-08T03:46:20;99568.84;;;1.93;100.00
20424;BME280;10371;49.042;8.002;2024-03-08T03:47:20;99559.47;;;1.92;100.00
20424;BME280;10371;49.042;8.002;2024-03-08T03:48:21;99569.59;;;1.95;100.00
20424;BME280;10371;49.042;8.002;2024-03-08T03:49:21;99562.97;;;1.91;100.00
20424;BME280;10371;49.042;8.002;2024-03-08T03:50:21;99565.69;;;1.88;100.00
20424;BME280;10371;49.042;8.002;2024-03-08T03:51:23;99557.97;;;1.88;100.00
20424;BME280;10371;49.042;8.002;2024-03-08T03:52:24;99555.63;;;1.83;100.00
20424;BME280;10371;49.042;8.002;2024-03-08T03:53:24;99567.56;;;1.84;100.00
20424;BME280;10371;49.042;8.002;2024-03-08T03:54:25;99563.19;;;1.86;100.00
20424;BME280;10371;49.042;8.002;2024-03-08T03:55:26;99559.94;;;1.83;100.00
20424;BME280;10371;49.042;8.002;2024-03-08T03:56:27;99560.00;;;1.81;100.00
20424;BME280;10371;49.042;8.002;2024-03-08T03:57:27;99561.59;;;1.84;100.00
20424;BME280;10371;49.042;8.002;2024-03-08T03:58:28;99570.34;;;1.79;100.00
20424;BME280;10371;49.042;8.002;2024-03-08T03:59:29;99561.91;;;1.77;100.00
20424;BME280;10371;49.042;8.002;2024-03-08T04:00:29;99565.22;;;1.79;100.00
20424;BME280;10371;49.042;8.002;2024-03-08T04:01:29;99559.31;;;1.77;100.00
20424;BME280;10371;49.042;8.002;2024-03-08T04:02:29;99566.03;;;1.80;100.00
20424;BME280;10371;49.042;8.002;2024-03-08T04:03:30;99561.84;;;1.79;100.00
20424;BME280;10371;49.042;8.002;2024-03-08T04:04:30;99563.56;;;1.78;100.00
20424;BME280;10371;49.042;8.002;2024-03-08T04:05:30;99563.56;;;1.78;100.00
20424;BME280;10371;49.042;8.002;2024-03-08T04:06:31;99561.91;;;1.77;100.00
20424;BME280;10371;49.042;8.002;2024-03-08T04:07:32;99561.13;;;1.75;100.00
20424;BME280;10371;49.042;8.002;2024-03-08T04:08:32;99555.94;;;1.77;100.00
20424;BME280;10371;49.042;8.002;2024-03-08T04:09:35;99555.09;;;1.76;100.00
20424;BME280;10371;49.042;8.002;2024-03-08T04:10:35;99556.09;;;1.74;100.00
20424;BME280;10371;49.042;8.002;2024-03-08T04:11:36;99551.03;;;1.72;100.00
20424;BME280;10371;49.042;8.002;2024-03-08T04:12:37;99545.16;;;1.70;100.00
20424;BME280;10371;49.042;8.002;2024-03-08T04:13:37;99546.03;;;1.69;100.00
20424;BME280;10371;49.042;8.002;2024-03-08T04:14:40;99551.03;;;1.72;100.00
20424;BME280;10371;49.042;8.002;2024-03-08T04:15:41;99551.94;;;1.71;100.00
20424;BME280;10371;49.042;8.002;2024-03-08T04:16:44;99544.28;;;1.70;100.00
20424;BME280;10371;49.042;8.002;2024-03-08T04:17:44;99548.53;;;1.71;100.00
20424;BME280;10371;49.042;8.002;2024-03-08T04:18:45;99550.81;;;1.77;100.00
20424;BME280;10371;49.042;8.002;2024-03-08T04:19:46;99549.88;;;1.78;100.00
20424;BME280;10371;49.042;8.002;2024-03-08T04:20:48;99541.50;;;1.74;100.00
20424;BME280;10371;49.042;8.002;2024-03-08T04:21:48;99542.44;;;1.73;100.00
20424;BME280;10371;49.042;8.002;2024-03-08T04:22:49;99545.88;;;1.72;100.00
20424;BME280;10371;49.042;8.002;2024-03-08T04:23:49;99547.72;;;1.70;100.00
20424;BME280;10371;49.042;8.002;2024-03-08T04:24:49;99546.75;;;1.73;100.00
20424;BME280;10371;49.042;8.002;2024-03-08T04:25:49;99545.16;;;1.70;100.00
20424;BME280;10371;49.042;8.002;2024-03-08T04:26:50;99541.72;;;1.70;100.00
20424;BME280;10371;49.042;8.002;2024-03-08T04:27:50;99545.97;;;1.71;100.00
20424;BME280;10371;49.042;8.002;2024-03-08T04:28:53;99543.56;;;1.68;100.00
20424;BME280;10371;49.042;8.002;2024-03-08T04:29:53;99544.44;;;1.67;100.00
20424;BME280;10371;49.042;8.002;2024-03-08T04:30:53;99547.09;;;1.65;100.00
20424;BME280;10371;49.042;8.002;2024-03-08T04:31:54;99541.97;;;1.65;100.00
20424;BME280;10371;49.042;8.002;2024-03-08T04:32:55;99541.06;;;1.66;100.00
20424;BME280;10371;49.042;8.002;2024-03-08T04:33:55;99536.84;;;1.65;100.00
20424;BME280;10371;49.042;8.002;2024-03-08T04:34:56;99541.97;;;1.65;100.00
20424;BME280;10371;49.042;8.002;2024-03-08T04:35:56;99539.56;;;1.62;100.00
20424;BME280;10371;49.042;8.002;2024-03-08T04:36:58;99541.16;;;1.65;100.00
20424;BME280;10371;49.042;8.002;2024-03-08T04:37:58;99541.22;;;1.63;100.00
20424;BME280;10371;49.042;8.002;2024-03-08T04:38:59;99536.00;;;1.65;100.00
20424;BME280;10371;49.042;8.002;2024-03-08T04:40:00;99537.47;;;1.70;100.00
20424;BME280;10371;49.042;8.002;2024-03-08T04:41:01;99538.50;;;1.66;100.00
20424;BME280;10371;49.042;8.002;2024-03-08T04:42:02;99536.16;;;1.62;100.00
20424;BME280;10371;49.042;8.002;2024-03-08T04:43:10;99530.34;;;1.58;100.00
20424;BME280;10371;49.042;8.002;2024-03-08T04:44:11;99539.63;;;1.61;100.00
20424;BME280;10371;49.042;8.002;2024-03-08T04:45:12;99535.31;;;1.61;100.00
20424;BME280;10371;49.042;8.002;2024-03-08T04:46:13;99531.03;;;1.62;100.00
20424;BME280;10371;49.042;8.002;2024-03-08T04:47:14;99535.31;;;1.61;100.00
20424;BME280;10371;49.042;8.002;2024-03-08T04:48:14;99528.53;;;1.60;100.00
20424;BME280;10371;49.042;8.002;2024-03-08T04:49:15;99534.94;;;1.69;100.00
20424;BME280;10371;49.042;8.002;2024-03-08T04:50:15;99529.06;;;1.67;100.00
20424;BME280;10371;49.042;8.002;2024-03-08T04:51:16;99531.16;;;1.59;100.00
20424;BME280;10371;49.042;8.002;2024-03-08T04:52:16;99529.34;;;1.61;100.00
20424;BME280;10371;49.042;8.002;2024-03-08T04:53:17;99530.34;;;1.58;100.00
20424;BME280;10371;49.042;8.002;2024-03-08T04:54:17;99526.31;;;1.52;100.00
20424;BME280;10371;49.042;8.002;2024-03-08T04:55:18;99524.31;;;1.59;100.00
20424;BME280;10371;49.042;8.002;2024-03-08T04:56:21;99525.34;;;1.55;100.00
20424;BME280;10371;49.042;8.002;2024-03-08T04:57:21;99528.06;;;1.52;100.00
20424;BME280;10371;49.042;8.002;2024-03-08T04:58:21;99523.84;;;1.51;100.00
20424;BME280;10371;49.042;8.002;2024-03-08T04:59:22;99529.81;;;1.51;100.00
20424;BME280;10371;49.042;8.002;2024-03-08T05:00:22;99524.88;;;1.47;100.00
20424;BME280;10371;49.042;8.002;2024-03-08T05:01:22;99526.63;;;1.46;100.00
20424;BME280;10371;49.042;8.002;2024-03-08T05:02:22;99527.47;;;1.47;100.00
20424;BME280;10371;49.042;8.002;2024-03-08T05:03:23;99528.53;;;1.43;100.00
20424;BME280;10371;49.042;8.002;2024-03-08T05:04:26;99536.22;;;1.43;100.00
20424;BME280;10371;49.042;8.002;2024-03-08T05:05:26;99522.56;;;1.42;100.00
20424;BME280;10371;49.042;8.002;2024-03-08T05:06:28;99530.94;;;1.46;100.00
20424;BME280;10371;49.042;8.002;2024-03-08T05:07:30;99536.22;;;1.43;100.00
20424;BME280;10371;49.042;8.002;2024-03-08T05:08:30;99525.81;;;1.46;100.00
20424;BME280;10371;49.042;8.002;2024-03-08T05:09:31;99527.59;;;1.44;100.00
20424;BME280;10371;49.042;8.002;2024-03-08T05:10:31;99531.22;;;1.40;100.00
20424;BME280;10371;49.042;8.002;2024-03-08T05:11:32;99532.13;;;1.39;100.00
20424;BME280;10371;49.042;8.002;2024-03-08T05:12:33;99526.25;;;1.37;100.00
20424;BME280;10371;49.042;8.002;2024-03-08T05:13:34;99529.84;;;1.32;100.00
20424;BME280;10371;49.042;8.002;2024-03-08T05:14:34;99529.84;;;1.32;100.00
20424;BME280;10371;49.042;8.002;2024-03-08T05:15:35;99531.50;;;1.33;100.00
20424;BME280;10371;49.042;8.002;2024-03-08T05:16:36;99531.44;;;1.35;100.00
20424;BME280;10371;49.042;8.002;2024-03-08T05:17:36;99531.50;;;1.33;100.00
20424;BME280;10371;49.042;8.002;2024-03-08T05:18:37;99521.41;;;1.30;100.00
20424;BME280;10371;49.042;8.002;2024-03-08T05:19:37;99528.19;;;1.31;100.00
20424;BME280;10371;49.042;8.002;2024-03-08T05:20:38;99527.38;;;1.31;100.00
20424;BME280;10371;49.042;8.002;2024-03-08T05:21:39;99522.09;;;1.34;100.00
20424;BME280;10371;49.042;8.002;2024-03-08T05:22:39;99516.88;;;1.36;100.00
20424;BME280;10371;49.042;8.002;2024-03-08T05:23:42;99527.06;;;1.37;100.00
20424;BME280;10371;49.042;8.002;2024-03-08T05:24:43;99520.81;;;1.43;100.00